createdAt,value
2019-02-24T00:01:21.044Z,13.73
2019-02-24T00:03:49.511Z,12.27
2019-02-24T00:06:17.990Z,13.50
2019-02-24T00:08:46.463Z,13.13
2019-02-24T00:11:14.941Z,13.33
2019-02-24T00:13:43.429Z,12.97
2019-02-24T00:16:11.904Z,13.40
2019-02-24T00:18:40.408Z,13.40
2019-02-24T00:21:08.888Z,12.47
2019-02-24T00:23:37.356Z,13.10
2019-02-24T00:26:05.855Z,13.60
2019-02-24T00:28:34.330Z,12.50
2019-02-24T00:31:02.811Z,11.80
2019-02-24T00:33:31.350Z,12.80
2019-02-24T00:35:59.843Z,13.10
2019-02-24T00:38:28.735Z,11.70
2019-02-24T00:40:57.228Z,12.07
2019-02-24T00:43:25.695Z,11.30
2019-02-24T00:45:54.195Z,11.70
2019-02-24T00:48:22.659Z,10.77
2019-02-24T00:50:51.154Z,11.00
2019-02-24T00:53:19.622Z,12.13
2019-02-24T00:55:48.190Z,11.30
2019-02-24T00:58:16.676Z,12.23
2019-02-24T01:00:45.196Z,11.00
2019-02-24T01:03:13.646Z,11.50
2019-02-24T01:05:42.153Z,11.93
2019-02-24T01:08:10.785Z,11.33
2019-02-24T01:10:39.264Z,10.93
2019-02-24T01:13:07.724Z,10.87
2019-02-24T01:15:36.213Z,11.80
2019-02-24T01:18:04.697Z,11.30
2019-02-24T01:20:33.172Z,10.57
2019-02-24T01:23:01.648Z,11.93
2019-02-24T01:25:30.132Z,11.70
2019-02-24T01:27:58.596Z,11.13
2019-02-24T01:30:27.088Z,10.97
2019-02-24T01:32:55.547Z,10.57
2019-02-24T01:35:24.042Z,11.30
2019-02-24T01:37:52.573Z,10.97
2019-02-24T01:40:21.068Z,9.93
2019-02-24T01:42:49.528Z,10.23
2019-02-24T01:45:18.016Z,10.87
2019-02-24T01:47:46.491Z,10.40
2019-02-24T01:50:14.982Z,11.20
2019-02-24T01:52:43.455Z,10.63
2019-02-24T01:55:11.943Z,10.67
2019-02-24T01:57:40.426Z,11.50
2019-02-24T02:00:10.640Z,10.57
2019-02-24T02:02:39.121Z,11.47
2019-02-24T02:05:08.451Z,11.80
2019-02-24T02:07:36.926Z,11.70
2019-02-24T02:10:06.955Z,12.10
2019-02-24T02:12:35.424Z,12.13
2019-02-24T02:15:04.111Z,12.23
2019-02-24T02:17:32.576Z,11.60
2019-02-24T02:20:01.064Z,11.83
2019-02-24T02:22:29.555Z,11.80
2019-02-24T02:24:58.051Z,11.60
2019-02-24T02:27:26.521Z,11.37
2019-02-24T02:29:55.011Z,11.90
2019-02-24T02:32:23.467Z,11.57
2019-02-24T02:34:51.955Z,12.77
2019-02-24T02:37:20.435Z,11.40
2019-02-24T02:39:48.936Z,12.47
2019-02-24T02:42:17.388Z,11.87
2019-02-24T02:44:45.875Z,10.87
2019-02-24T02:47:14.350Z,12.40
2019-02-24T02:49:42.841Z,11.53
2019-02-24T02:52:11.314Z,11.60
2019-02-24T02:54:39.781Z,11.27
2019-02-24T02:57:08.279Z,11.43
2019-02-24T02:59:36.763Z,11.53
2019-02-24T03:02:05.343Z,10.73
2019-02-24T03:04:33.796Z,11.83
2019-02-24T03:07:21.974Z,11.03
2019-02-24T03:09:50.475Z,10.43
2019-02-24T03:12:18.933Z,11.00
2019-02-24T03:14:47.415Z,10.63
2019-02-24T03:17:15.895Z,10.60
2019-02-24T03:19:44.360Z,11.13
2019-02-24T03:22:12.857Z,11.00
2019-02-24T03:24:41.348Z,11.00
2019-02-24T03:27:09.852Z,10.97
2019-02-24T03:29:38.326Z,11.50
2019-02-24T03:32:06.827Z,11.33
2019-02-24T03:34:35.308Z,11.10
2019-02-24T03:37:03.812Z,11.13
2019-02-24T03:39:32.269Z,11.47
2019-02-24T03:42:00.946Z,11.33
2019-02-24T03:44:29.410Z,12.30
2019-02-24T03:46:57.904Z,11.50
2019-02-24T03:49:26.401Z,11.30
2019-02-24T03:51:54.884Z,12.20
2019-02-24T03:54:23.364Z,11.90
2019-02-24T03:56:51.846Z,11.90
2019-02-24T03:59:20.329Z,11.03
2019-02-24T04:01:48.894Z,12.30
2019-02-24T04:04:17.363Z,11.73
2019-02-24T04:06:45.868Z,13.40
2019-02-24T04:09:14.342Z,11.67
2019-02-24T04:11:42.837Z,12.27
2019-02-24T04:14:11.384Z,11.93
2019-02-24T04:16:39.888Z,12.70
2019-02-24T04:19:08.401Z,12.50
2019-02-24T04:21:36.866Z,13.07
2019-02-24T04:24:05.349Z,12.47
2019-02-24T04:26:33.828Z,12.37
2019-02-24T04:29:02.297Z,12.27
2019-02-24T04:31:30.792Z,11.70
2019-02-24T04:33:59.286Z,12.63
2019-02-24T04:36:27.787Z,12.00
2019-02-24T04:38:56.264Z,11.77
2019-02-24T04:41:24.762Z,11.40
2019-02-24T04:43:53.230Z,12.50
2019-02-24T04:46:21.737Z,12.30
2019-02-24T04:48:50.201Z,11.30
2019-02-24T04:51:18.685Z,12.03
2019-02-24T04:53:47.164Z,12.03
2019-02-24T04:56:15.661Z,11.63
2019-02-24T04:58:44.221Z,11.30
2019-02-24T05:01:12.707Z,11.23
2019-02-24T05:03:41.228Z,11.63
2019-02-24T05:06:09.944Z,11.87
2019-02-24T05:08:38.413Z,12.10
2019-02-24T05:11:06.909Z,11.03
2019-02-24T05:13:35.383Z,10.90
2019-02-24T05:16:03.903Z,11.53
2019-02-24T05:18:32.369Z,10.67
2019-02-24T05:21:00.881Z,11.50
2019-02-24T05:23:29.653Z,11.13
2019-02-24T05:25:58.142Z,10.37
2019-02-24T05:28:26.612Z,10.83
2019-02-24T05:30:55.110Z,11.90
2019-02-24T05:33:23.584Z,11.23
2019-02-24T05:35:52.072Z,10.87
2019-02-24T05:38:20.585Z,11.73
2019-02-24T05:40:49.043Z,10.97
2019-02-24T05:43:17.549Z,12.13
2019-02-24T05:45:46.014Z,11.17
2019-02-24T05:48:14.509Z,11.13
2019-02-24T05:50:42.990Z,11.23
2019-02-24T05:53:11.485Z,12.37
2019-02-24T05:55:39.956Z,11.93
2019-02-24T05:58:08.462Z,11.77
2019-02-24T06:00:37.190Z,12.50
2019-02-24T06:03:05.687Z,12.13
2019-02-24T06:05:34.165Z,11.83
2019-02-24T06:08:02.668Z,12.30
2019-02-24T06:10:31.150Z,11.40
2019-02-24T06:12:59.637Z,12.37
2019-02-24T06:15:28.142Z,11.97
2019-02-24T06:17:56.642Z,12.07
2019-02-24T06:20:25.112Z,12.60
2019-02-24T06:22:53.674Z,11.80
2019-02-24T06:25:22.156Z,12.23
2019-02-24T06:27:50.654Z,12.60
2019-02-24T06:30:19.286Z,11.73
2019-02-24T06:32:47.979Z,12.33
2019-02-24T06:35:16.448Z,11.70
2019-02-24T06:37:44.946Z,12.50
2019-02-24T06:40:13.479Z,11.90
2019-02-24T06:42:42.039Z,11.83
2019-02-24T06:45:10.888Z,12.60
2019-02-24T06:47:39.578Z,12.00
2019-02-24T06:50:09.284Z,12.40
2019-02-24T06:52:37.784Z,11.93
2019-02-24T06:55:08.086Z,11.93
2019-02-24T06:57:36.583Z,12.50
2019-02-24T07:00:13.812Z,11.67
2019-02-24T07:02:37.565Z,12.53
2019-02-24T07:05:07.964Z,12.97
2019-02-24T07:07:36.524Z,12.33
2019-02-24T07:10:06.387Z,12.30
2019-02-24T07:12:34.880Z,12.50
2019-02-24T07:15:04.224Z,12.80
2019-02-24T07:17:32.724Z,12.40
2019-02-24T07:20:01.196Z,12.87
2019-02-24T07:22:29.749Z,12.37
2019-02-24T07:24:58.235Z,12.10
2019-02-24T07:27:26.731Z,11.97
2019-02-24T07:29:55.192Z,12.43
2019-02-24T07:32:23.702Z,12.23
2019-02-24T07:34:52.157Z,12.00
2019-02-24T07:37:20.666Z,11.07
2019-02-24T07:39:49.144Z,12.27
2019-02-24T07:42:17.642Z,11.80
2019-02-24T07:44:46.484Z,12.10
2019-02-24T07:47:15.216Z,11.77
2019-02-24T07:49:43.682Z,12.03
2019-02-24T07:52:12.315Z,11.57
2019-02-24T07:54:40.850Z,11.43
2019-02-24T07:57:09.342Z,12.27
2019-02-24T07:59:37.885Z,11.67
2019-02-24T08:02:07.903Z,12.20
2019-02-24T08:04:36.522Z,11.43
2019-02-24T08:07:05.102Z,11.30
2019-02-24T08:09:33.602Z,12.10
2019-02-24T08:12:02.084Z,12.00
2019-02-24T08:14:30.582Z,11.70
2019-02-24T08:16:59.049Z,12.07
2019-02-24T08:19:27.544Z,11.27
2019-02-24T08:21:56.217Z,12.50
2019-02-24T08:24:24.783Z,12.50
2019-02-24T08:26:53.334Z,11.77
2019-02-24T08:29:21.839Z,12.53
2019-02-24T08:31:50.380Z,12.03
2019-02-24T08:34:19.030Z,13.47
2019-02-24T08:36:47.508Z,12.30
2019-02-24T08:39:16.002Z,11.93
2019-02-24T08:41:44.476Z,12.17
2019-02-24T08:44:13.198Z,12.63
2019-02-24T08:46:41.677Z,12.07
2019-02-24T08:49:10.160Z,11.67
2019-02-24T08:51:38.639Z,11.93
2019-02-24T08:54:07.124Z,12.57
2019-02-24T08:56:35.602Z,11.97
2019-02-24T08:59:04.086Z,12.30
2019-02-24T09:01:32.595Z,12.20
2019-02-24T09:04:01.103Z,12.33
2019-02-24T09:06:29.588Z,12.00
2019-02-24T09:08:58.078Z,12.50
2019-02-24T09:11:26.551Z,12.70
2019-02-24T09:13:55.041Z,11.30
2019-02-24T09:16:23.533Z,12.17
2019-02-24T09:18:52.062Z,11.90
2019-02-24T09:21:20.548Z,12.40
2019-02-24T09:23:49.060Z,15.97
2019-02-24T09:26:17.531Z,27.13
2019-02-24T09:28:46.020Z,12.97
2019-02-24T09:31:14.489Z,12.27
2019-02-24T09:33:43.003Z,13.27
2019-02-24T09:36:11.478Z,12.10
2019-02-24T09:38:39.968Z,12.37
2019-02-24T09:41:08.444Z,11.37
2019-02-24T09:43:36.933Z,12.40
2019-02-24T09:46:05.408Z,11.80
2019-02-24T09:48:33.921Z,12.00
2019-02-24T09:51:02.387Z,12.87
2019-02-24T09:53:30.864Z,15.83
2019-02-24T09:55:59.387Z,12.80
2019-02-24T09:58:27.863Z,12.13
2019-02-24T10:00:56.359Z,11.90
2019-02-24T10:03:24.836Z,11.23
2019-02-24T10:05:53.345Z,11.90
2019-02-24T10:08:21.833Z,10.57
2019-02-24T10:10:50.325Z,10.70
2019-02-24T10:13:18.810Z,10.60
2019-02-24T10:15:47.312Z,11.00
2019-02-24T10:18:15.783Z,10.30
2019-02-24T10:20:44.284Z,10.23
2019-02-24T10:23:12.768Z,10.80
2019-02-24T10:25:41.332Z,10.77
2019-02-24T10:28:09.803Z,10.07
2019-02-24T10:30:38.328Z,10.47
2019-02-24T10:33:06.871Z,9.50
2019-02-24T10:35:35.359Z,10.47
2019-02-24T10:38:03.839Z,9.47
2019-02-24T10:40:32.340Z,14.97
2019-02-24T10:43:00.798Z,9.47
2019-02-24T10:45:29.288Z,9.47
2019-02-24T10:47:57.768Z,9.63
2019-02-24T10:50:26.273Z,8.77
2019-02-24T10:52:54.728Z,8.80
2019-02-24T10:55:23.204Z,8.77
2019-02-24T10:57:51.693Z,8.10
2019-02-24T11:00:21.391Z,8.40
2019-02-24T11:02:49.899Z,9.27
2019-02-24T11:05:18.351Z,9.60
2019-02-24T11:07:46.847Z,8.60
2019-02-24T11:10:15.389Z,8.33
2019-02-24T11:12:43.888Z,8.10
2019-02-24T11:15:13.507Z,8.97
2019-02-24T11:17:42.001Z,9.00
2019-02-24T11:20:15.588Z,9.27
2019-02-24T11:22:44.083Z,9.40
2019-02-24T11:25:13.202Z,8.90
2019-02-24T11:27:41.708Z,8.60
2019-02-24T11:30:12.764Z,8.53
2019-02-24T11:32:41.332Z,7.63
2019-02-24T11:35:11.659Z,8.13
2019-02-24T11:37:40.156Z,8.27
2019-02-24T11:40:17.302Z,7.40
2019-02-24T11:42:45.803Z,5.60
2019-02-24T11:45:14.327Z,5.20
2019-02-24T11:47:42.824Z,5.70
2019-02-24T11:50:12.638Z,5.50
2019-02-24T11:52:41.127Z,5.90
2019-02-24T11:55:10.626Z,5.23
2019-02-24T11:57:39.293Z,5.00
2019-02-24T12:00:12.735Z,4.87
2019-02-24T12:02:41.982Z,4.80
2019-02-24T12:05:10.867Z,4.47
2019-02-24T12:07:39.370Z,4.37
2019-02-24T12:10:12.839Z,4.30
2019-02-24T12:12:41.401Z,4.80
2019-02-24T12:15:11.983Z,4.43
2019-02-24T12:17:40.478Z,4.43
2019-02-24T12:20:14.020Z,4.87
2019-02-24T12:22:42.521Z,4.63
2019-02-24T12:25:12.020Z,5.10
2019-02-24T12:27:40.538Z,2.87
2019-02-24T12:30:11.448Z,2.63
2019-02-24T12:32:40.018Z,2.63
2019-02-24T12:35:08.752Z,3.33
2019-02-24T12:37:37.238Z,3.00
2019-02-24T12:40:10.465Z,3.30
2019-02-24T12:42:38.947Z,3.53
2019-02-24T12:45:09.646Z,3.60
2019-02-24T12:47:38.129Z,3.90
2019-02-24T12:50:09.642Z,4.10
2019-02-24T12:52:38.151Z,4.37
2019-02-24T12:55:07.952Z,5.17
2019-02-24T12:57:36.455Z,4.50
2019-02-24T13:00:09.601Z,4.80
2019-02-24T13:02:38.099Z,4.80
2019-02-24T13:05:07.413Z,5.90
2019-02-24T13:07:35.924Z,4.77
2019-02-24T13:10:06.990Z,4.90
2019-02-24T13:12:35.481Z,4.83
2019-02-24T13:15:05.748Z,5.83
2019-02-24T13:17:34.240Z,5.43
2019-02-24T13:20:02.706Z,5.90
2019-02-24T13:22:31.204Z,5.23
2019-02-24T13:24:59.668Z,5.30
2019-02-24T13:27:28.127Z,4.87
2019-02-24T13:29:56.609Z,5.10
2019-02-24T13:32:25.097Z,5.43
2019-02-24T13:34:53.613Z,4.80
2019-02-24T13:37:22.093Z,6.20
2019-02-24T13:39:50.580Z,4.63
2019-02-24T13:42:19.159Z,8.80
2019-02-24T13:44:47.650Z,9.43
2019-02-24T13:47:17.774Z,6.27
2019-02-24T13:49:46.251Z,5.73
2019-02-24T13:52:14.717Z,5.23
2019-02-24T13:54:43.250Z,4.83
2019-02-24T13:57:11.681Z,4.53
2019-02-24T13:59:40.176Z,9.70
2019-02-24T14:02:08.665Z,6.80
2019-02-24T14:04:37.167Z,5.17
2019-02-24T14:07:05.647Z,5.37
2019-02-24T14:09:34.145Z,4.80
2019-02-24T14:12:02.611Z,4.90
2019-02-24T14:14:31.094Z,4.87
2019-02-24T14:16:59.549Z,6.47
2019-02-24T14:19:28.026Z,5.03
2019-02-24T14:21:56.506Z,5.30
2019-02-24T14:24:24.987Z,5.00
2019-02-24T14:26:53.460Z,4.53
2019-02-24T14:29:21.944Z,4.30
2019-02-24T14:31:50.411Z,4.50
2019-02-24T14:34:18.899Z,4.67
2019-02-24T14:36:47.375Z,4.27
2019-02-24T14:39:15.864Z,4.67
2019-02-24T14:41:44.320Z,4.00
2019-02-24T14:44:13.178Z,8.60
2019-02-24T14:46:41.685Z,10.10
2019-02-24T14:49:10.195Z,11.33
2019-02-24T14:51:38.674Z,6.73
2019-02-24T14:54:07.131Z,5.30
2019-02-24T14:56:35.611Z,4.90
2019-02-24T14:59:05.549Z,4.70
2019-02-24T15:01:34.256Z,4.10
2019-02-24T15:04:02.741Z,4.63
2019-02-24T15:06:31.216Z,4.37
2019-02-24T15:08:59.683Z,4.63
2019-02-24T15:11:28.196Z,4.33
2019-02-24T15:13:56.658Z,5.03
2019-02-24T15:16:25.149Z,4.67
2019-02-24T15:18:53.621Z,5.60
2019-02-24T15:21:22.347Z,5.30
2019-02-24T15:23:50.804Z,5.20
2019-02-24T15:26:19.284Z,4.93
2019-02-24T15:28:47.758Z,4.60
2019-02-24T15:31:16.250Z,4.73
2019-02-24T15:33:44.721Z,4.00
2019-02-24T15:36:13.209Z,4.20
2019-02-24T15:38:41.675Z,3.67
2019-02-24T15:41:10.158Z,3.60
2019-02-24T15:43:38.625Z,3.73
2019-02-24T15:46:07.195Z,3.43
2019-02-24T15:48:35.653Z,3.37
2019-02-24T15:51:04.129Z,3.33
2019-02-24T15:53:32.606Z,3.43
2019-02-24T15:56:01.567Z,3.10
2019-02-24T15:58:30.043Z,3.13
2019-02-24T16:00:58.537Z,3.53
2019-02-24T16:03:27.022Z,3.23
2019-02-24T16:05:55.509Z,3.60
2019-02-24T16:08:23.975Z,4.20
2019-02-24T16:10:52.452Z,4.77
2019-02-24T16:13:20.923Z,4.03
2019-02-24T16:15:49.420Z,6.43
2019-02-24T16:18:17.883Z,4.50
2019-02-24T16:20:46.429Z,4.33
2019-02-24T16:23:14.864Z,3.97
2019-02-24T16:25:43.350Z,4.37
2019-02-24T16:28:11.881Z,4.03
2019-02-24T16:30:40.377Z,4.10
2019-02-24T16:33:10.819Z,4.00
2019-02-24T16:35:39.050Z,5.70
2019-02-24T16:38:07.528Z,5.73
2019-02-24T16:40:36.013Z,5.00
2019-02-24T16:43:04.723Z,6.33
2019-02-24T16:45:33.213Z,4.93
2019-02-24T16:48:01.678Z,5.07
2019-02-24T16:50:30.175Z,4.20
2019-02-24T16:52:58.644Z,4.50
2019-02-24T16:55:27.185Z,4.13
2019-02-24T16:57:55.668Z,5.00
2019-02-24T17:00:25.684Z,4.30
2019-02-24T17:02:54.157Z,4.60
2019-02-24T17:05:22.634Z,4.47
2019-02-24T17:07:52.534Z,4.77
2019-02-24T17:10:22.463Z,4.30
2019-02-24T17:12:50.986Z,4.17
2019-02-24T17:15:19.570Z,4.73
2019-02-24T17:17:48.022Z,4.73
2019-02-24T17:20:24.898Z,7.60
2019-02-24T17:22:53.389Z,8.20
2019-02-24T17:25:21.869Z,7.47
2019-02-24T17:27:50.425Z,7.57
2019-02-24T17:30:18.889Z,6.97
2019-02-24T17:32:47.404Z,5.70
2019-02-24T17:35:15.956Z,5.90
2019-02-24T17:37:44.430Z,5.77
2019-02-24T17:40:15.295Z,5.00
2019-02-24T17:42:43.784Z,5.17
2019-02-24T17:45:13.601Z,5.23
2019-02-24T17:47:42.148Z,5.90
2019-02-24T17:50:18.538Z,5.60
2019-02-24T17:52:47.043Z,6.13
2019-02-24T17:55:16.844Z,6.23
2019-02-24T17:57:45.521Z,6.53
2019-02-24T18:00:21.377Z,6.67
2019-02-24T18:02:49.869Z,8.00
2019-02-24T18:05:18.334Z,7.60
2019-02-24T18:07:46.831Z,9.17
2019-02-24T18:10:15.297Z,9.00
2019-02-24T18:12:43.857Z,8.10
2019-02-24T18:15:13.138Z,7.20
2019-02-24T18:17:41.638Z,7.40
2019-02-24T18:20:12.555Z,7.00
2019-02-24T18:22:41.056Z,7.17
2019-02-24T18:25:12.324Z,6.93
2019-02-24T18:27:40.989Z,6.80
2019-02-24T18:30:18.307Z,5.80
2019-02-24T18:32:46.807Z,7.10
2019-02-24T18:35:15.267Z,6.70
2019-02-24T18:37:43.767Z,6.73
2019-02-24T18:40:13.984Z,6.43
2019-02-24T18:42:42.473Z,6.57
2019-02-24T18:45:12.587Z,6.90
2019-02-24T18:47:41.062Z,6.40
2019-02-24T18:50:14.949Z,7.87
2019-02-24T18:52:43.503Z,6.97
2019-02-24T18:55:12.849Z,5.97
2019-02-24T18:57:41.381Z,6.87
2019-02-24T19:00:20.525Z,6.60
2019-02-24T19:02:49.061Z,6.60
2019-02-24T19:05:17.629Z,6.93
2019-02-24T19:07:46.162Z,6.73
2019-02-24T19:10:17.171Z,7.13
2019-02-24T19:12:45.639Z,7.00
2019-02-24T19:15:19.033Z,7.30
2019-02-24T19:17:47.516Z,7.50
2019-02-24T19:20:20.194Z,7.43
2019-02-24T19:22:48.671Z,8.60
2019-02-24T19:25:17.534Z,8.00
2019-02-24T19:27:45.999Z,8.00
2019-02-24T19:30:16.320Z,8.07
2019-02-24T19:32:44.928Z,8.23
2019-02-24T19:35:15.087Z,7.40
2019-02-24T19:37:43.846Z,9.87
2019-02-24T19:40:17.386Z,15.53
2019-02-24T19:42:46.025Z,15.80
2019-02-24T19:45:16.663Z,14.70
2019-02-24T19:47:45.140Z,10.13
2019-02-24T19:50:15.881Z,9.57
2019-02-24T19:52:44.501Z,9.40
2019-02-24T19:55:14.627Z,9.93
2019-02-24T19:57:43.277Z,8.33
2019-02-24T20:00:25.031Z,8.53
2019-02-24T20:02:53.641Z,8.10
2019-02-24T20:05:22.579Z,8.03
2019-02-24T20:07:51.117Z,8.20
2019-02-24T20:10:25.480Z,8.17
2019-02-24T20:12:53.949Z,8.50
2019-02-24T20:15:22.447Z,8.20
2019-02-24T20:17:50.928Z,8.87
2019-02-24T20:20:19.416Z,8.13
2019-02-24T20:22:47.977Z,14.33
2019-02-24T20:25:24.249Z,12.30
2019-02-24T20:27:52.720Z,10.70
2019-02-24T20:30:32.671Z,9.60
2019-02-24T20:33:01.139Z,9.23
2019-02-24T20:35:29.636Z,8.90
2019-02-24T20:37:58.125Z,12.47
2019-02-24T20:40:26.684Z,13.13
2019-02-24T20:42:55.165Z,15.37
2019-02-24T20:45:24.808Z,13.50
2019-02-24T20:47:53.432Z,11.27
2019-02-24T20:50:24.983Z,11.37
2019-02-24T20:52:53.469Z,10.80
2019-02-24T20:55:21.966Z,9.57
2019-02-24T20:57:51.725Z,11.00
2019-02-24T21:00:25.666Z,10.77
2019-02-24T21:02:54.143Z,10.10
2019-02-24T21:05:22.636Z,9.93
2019-02-24T21:07:51.182Z,10.90
2019-02-24T21:10:19.680Z,10.37
2019-02-24T21:12:48.209Z,10.77
2019-02-24T21:15:36.041Z,10.23
2019-02-24T21:18:05.055Z,10.40
2019-02-24T21:20:34.341Z,10.47
2019-02-24T21:23:02.766Z,10.37
2019-02-24T21:25:31.275Z,10.30
2019-02-24T21:27:59.757Z,10.43
2019-02-24T21:30:28.263Z,10.93
2019-02-24T21:32:56.736Z,10.53
2019-02-24T21:35:25.231Z,10.60
2019-02-24T21:37:53.708Z,10.67
2019-02-24T21:40:23.617Z,10.00
2019-02-24T21:42:52.330Z,10.20
2019-02-24T21:45:28.289Z,10.27
2019-02-24T21:47:56.768Z,10.47
2019-02-24T21:50:25.271Z,10.03
2019-02-24T21:52:53.742Z,10.07
2019-02-24T21:55:22.283Z,10.33
2019-02-24T21:57:50.752Z,11.17
2019-02-24T22:00:23.713Z,11.03
2019-02-24T22:02:52.473Z,11.13
2019-02-24T22:05:20.953Z,11.33
2019-02-24T22:07:49.444Z,11.27
2019-02-24T22:10:18.046Z,12.33
2019-02-24T22:12:46.552Z,11.90
2019-02-24T22:15:18.101Z,11.43
2019-02-24T22:17:46.666Z,11.33
2019-02-24T22:20:15.807Z,11.73
2019-02-24T22:22:44.910Z,11.07
2019-02-24T22:25:14.847Z,12.57
2019-02-24T22:27:43.344Z,11.93
2019-02-24T22:30:17.731Z,13.13
2019-02-24T22:32:46.237Z,14.20
2019-02-24T22:35:14.715Z,13.23
2019-02-24T22:37:43.249Z,13.67
2019-02-24T22:40:16.732Z,13.63
2019-02-24T22:42:46.662Z,13.70
2019-02-24T22:45:20.186Z,13.50
2019-02-24T22:47:49.226Z,13.63
2019-02-24T22:50:18.106Z,13.93
2019-02-24T22:52:46.943Z,13.13
2019-02-24T22:55:16.752Z,13.73
2019-02-24T22:57:45.238Z,12.30
2019-02-24T23:00:27.177Z,12.70
2019-02-24T23:02:56.077Z,12.70
2019-02-24T23:05:24.624Z,12.60
2019-02-24T23:07:53.116Z,13.03
2019-02-24T23:10:21.614Z,12.20
2019-02-24T23:12:50.123Z,12.23
2019-02-24T23:15:18.609Z,12.03
2019-02-24T23:17:47.093Z,12.20
2019-02-24T23:20:15.566Z,11.63
2019-02-24T23:22:44.051Z,12.10
2019-02-24T23:25:12.529Z,12.43
2019-02-24T23:27:41.013Z,12.90
2019-02-24T23:30:10.517Z,12.87
2019-02-24T23:32:39.000Z,12.20
2019-02-24T23:35:07.921Z,12.87
2019-02-24T23:37:36.405Z,12.60
2019-02-24T23:40:08.091Z,12.80
2019-02-24T23:42:36.588Z,12.03
2019-02-24T23:45:10.620Z,12.07
2019-02-24T23:47:39.209Z,12.10
2019-02-24T23:50:09.800Z,12.37
2019-02-24T23:52:38.350Z,12.43
2019-02-24T23:55:07.723Z,12.27
2019-02-24T23:57:36.212Z,12.60
